sensor_id;sensor_type;location;lat;lon;timestamp;P1;durP1;ratioP1;P2;durP2;ratioP2
9322;SDS011;4700;48.822;9.270;2023-04-24T00:06:57;138.17;;;95.73;;
9322;SDS011;4700;48.822;9.270;2023-04-24T00:09:43;145.50;;;99.63;;
9322;SDS011;4700;48.822;9.270;2023-04-24T00:12:29;129.23;;;94.87;;
9322;SDS011;4700;48.822;9.270;2023-04-24T00:15:16;128.00;;;96.80;;
9322;SDS011;4700;48.822;9.270;2023-04-24T00:18:02;130.43;;;98.13;;
9322;SDS011;4700;48.822;9.270;2023-04-24T00:20:48;130.53;;;96.70;;
9322;SDS011;4700;48.822;9.270;2023-04-24T00:23:36;132.23;;;97.27;;
9322;SDS011;4700;48.822;9.270;2023-04-24T00:26:22;121.60;;;91.93;;
9322;SDS011;4700;48.822;9.270;2023-04-24T00:29:08;132.60;;;95.37;;
9322;SDS011;4700;48.822;9.270;2023-04-24T00:31:54;136.73;;;98.47;;
9322;SDS011;4700;48.822;9.270;2023-04-24T00:34:40;140.23;;;101.47;;
9322;SDS011;4700;48.822;9.270;2023-04-24T00:37:26;135.73;;;93.80;;
9322;SDS011;4700;48.822;9.270;2023-04-24T00:40:14;138.23;;;95.47;;
9322;SDS011;4700;48.822;9.270;2023-04-24T00:43:00;133.43;;;93.17;;
9322;SDS011;4700;48.822;9.270;2023-04-24T00:45:46;145.67;;;96.67;;
9322;SDS011;4700;48.822;9.270;2023-04-24T00:48:32;135.57;;;92.10;;
9322;SDS011;4700;48.822;9.270;2023-04-24T00:51:19;134.97;;;91.87;;
9322;SDS011;4700;48.822;9.270;2023-04-24T00:54:05;139.53;;;95.20;;
9322;SDS011;4700;48.822;9.270;2023-04-24T00:56:53;140.50;;;96.97;;
9322;SDS011;4700;48.822;9.270;2023-04-24T00:59:39;136.57;;;92.90;;
9322;SDS011;4700;48.822;9.270;2023-04-24T01:02:25;131.23;;;92.30;;
9322;SDS011;4700;48.822;9.270;2023-04-24T01:05:12;145.73;;;95.37;;
9322;SDS011;4700;48.822;9.270;2023-04-24T01:07:58;159.10;;;101.57;;
9322;SDS011;4700;48.822;9.270;2023-04-24T01:10:44;138.37;;;94.33;;
9322;SDS011;4700;48.822;9.270;2023-04-24T01:13:32;138.67;;;96.20;;
9322;SDS011;4700;48.822;9.270;2023-04-24T01:16:19;138.07;;;94.80;;
9322;SDS011;4700;48.822;9.270;2023-04-24T01:19:05;145.63;;;97.33;;
9322;SDS011;4700;48.822;9.270;2023-04-24T01:21:53;150.33;;;100.73;;
9322;SDS011;4700;48.822;9.270;2023-04-24T01:24:43;147.67;;;97.43;;
9322;SDS011;4700;48.822;9.270;2023-04-24T01:27:29;148.43;;;96.97;;
9322;SDS011;4700;48.822;9.270;2023-04-24T01:30:15;156.63;;;99.03;;
9322;SDS011;4700;48.822;9.270;2023-04-24T01:33:01;153.73;;;100.80;;
9322;SDS011;4700;48.822;9.270;2023-04-24T01:35:47;149.23;;;98.13;;
9322;SDS011;4700;48.822;9.270;2023-04-24T01:38:34;151.07;;;97.50;;
9322;SDS011;4700;48.822;9.270;2023-04-24T01:41:21;152.03;;;97.57;;
9322;SDS011;4700;48.822;9.270;2023-04-24T01:44:07;147.27;;;98.80;;
9322;SDS011;4700;48.822;9.270;2023-04-24T01:46:54;144.07;;;96.17;;
9322;SDS011;4700;48.822;9.270;2023-04-24T01:49:40;144.33;;;95.10;;
9322;SDS011;4700;48.822;9.270;2023-04-24T01:52:26;133.90;;;92.23;;
9322;SDS011;4700;48.822;9.270;2023-04-24T01:55:15;135.43;;;92.70;;
9322;SDS011;4700;48.822;9.270;2023-04-24T01:58:02;146.27;;;94.60;;
9322;SDS011;4700;48.822;9.270;2023-04-24T02:00:48;141.87;;;95.73;;
9322;SDS011;4700;48.822;9.270;2023-04-24T02:03:34;133.60;;;92.43;;
9322;SDS011;4700;48.822;9.270;2023-04-24T02:06:20;136.90;;;93.50;;
9322;SDS011;4700;48.822;9.270;2023-04-24T02:09:09;137.47;;;93.00;;
9322;SDS011;4700;48.822;9.270;2023-04-24T02:11:55;129.37;;;90.90;;
9322;SDS011;4700;48.822;9.270;2023-04-24T02:14:43;132.60;;;94.87;;
9322;SDS011;4700;48.822;9.270;2023-04-24T02:17:29;132.10;;;91.10;;
9322;SDS011;4700;48.822;9.270;2023-04-24T02:20:16;128.63;;;91.63;;
9322;SDS011;4700;48.822;9.270;2023-04-24T02:23:05;127.83;;;90.70;;
9322;SDS011;4700;48.822;9.270;2023-04-24T02:25:51;133.63;;;91.93;;
9322;SDS011;4700;48.822;9.270;2023-04-24T02:28:37;143.73;;;95.60;;
9322;SDS011;4700;48.822;9.270;2023-04-24T02:31:25;126.33;;;89.93;;
9322;SDS011;4700;48.822;9.270;2023-04-24T02:34:14;131.67;;;91.10;;
9322;SDS011;4700;48.822;9.270;2023-04-24T02:37:00;126.57;;;90.87;;
9322;SDS011;4700;48.822;9.270;2023-04-24T02:39:49;129.63;;;89.63;;
9322;SDS011;4700;48.822;9.270;2023-04-24T02:42:37;132.93;;;92.20;;
9322;SDS011;4700;48.822;9.270;2023-04-24T02:45:23;131.70;;;91.50;;
9322;SDS011;4700;48.822;9.270;2023-04-24T02:48:10;129.03;;;90.33;;
9322;SDS011;4700;48.822;9.270;2023-04-24T02:50:56;132.30;;;92.90;;
9322;SDS011;4700;48.822;9.270;2023-04-24T02:53:42;138.03;;;92.27;;
9322;SDS011;4700;48.822;9.270;2023-04-24T02:56:28;135.67;;;93.50;;
9322;SDS011;4700;48.822;9.270;2023-04-24T02:59:14;138.93;;;92.30;;
9322;SDS011;4700;48.822;9.270;2023-04-24T03:02:01;131.87;;;93.40;;
9322;SDS011;4700;48.822;9.270;2023-04-24T03:04:50;131.13;;;91.30;;
9322;SDS011;4700;48.822;9.270;2023-04-24T03:07:36;126.03;;;88.63;;
9322;SDS011;4700;48.822;9.270;2023-04-24T03:10:22;143.33;;;89.93;;
9322;SDS011;4700;48.822;9.270;2023-04-24T03:13:09;143.43;;;92.67;;
9322;SDS011;4700;48.822;9.270;2023-04-24T03:15:57;139.27;;;91.23;;
9322;SDS011;4700;48.822;9.270;2023-04-24T03:18:43;137.23;;;90.23;;
9322;SDS011;4700;48.822;9.270;2023-04-24T03:21:30;133.20;;;88.20;;
9322;SDS011;4700;48.822;9.270;2023-04-24T03:24:17;139.73;;;91.40;;
9322;SDS011;4700;48.822;9.270;2023-04-24T03:27:02;167.93;;;108.53;;
9322;SDS011;4700;48.822;9.270;2023-04-24T04:03:45;120.57;;;85.50;;
9322;SDS011;4700;48.822;9.270;2023-04-24T04:06:31;124.33;;;83.93;;
9322;SDS011;4700;48.822;9.270;2023-04-24T04:24:51;159.60;;;111.60;;
9322;SDS011;4700;48.822;9.270;2023-04-24T04:27:37;115.40;;;83.70;;
9322;SDS011;4700;48.822;9.270;2023-04-24T04:30:25;113.83;;;86.43;;
9322;SDS011;4700;48.822;9.270;2023-04-24T04:33:13;111.33;;;86.87;;
9322;SDS011;4700;48.822;9.270;2023-04-24T04:41:09;101.93;;;83.43;;
9322;SDS011;4700;48.822;9.270;2023-04-24T04:44:00;112.93;;;85.10;;
9322;SDS011;4700;48.822;9.270;2023-04-24T04:46:48;113.60;;;90.67;;
9322;SDS011;4700;48.822;9.270;2023-04-24T04:49:37;120.53;;;87.93;;
9322;SDS011;4700;48.822;9.270;2023-04-24T04:52:26;119.70;;;89.53;;
9322;SDS011;4700;48.822;9.270;2023-04-24T04:55:12;117.80;;;89.23;;
9322;SDS011;4700;48.822;9.270;2023-04-24T04:58:00;116.63;;;88.20;;
9322;SDS011;4700;48.822;9.270;2023-04-24T05:00:46;113.13;;;83.40;;
9322;SDS011;4700;48.822;9.270;2023-04-24T05:03:33;145.00;;;106.03;;
9322;SDS011;4700;48.822;9.270;2023-04-24T05:06:20;107.60;;;83.90;;
9322;SDS011;4700;48.822;9.270;2023-04-24T05:09:06;117.17;;;86.03;;
9322;SDS011;4700;48.822;9.270;2023-04-24T05:11:52;111.77;;;85.63;;
9322;SDS011;4700;48.822;9.270;2023-04-24T05:14:40;110.13;;;83.57;;
9322;SDS011;4700;48.822;9.270;2023-04-24T05:17:36;107.97;;;82.87;;
9322;SDS011;4700;48.822;9.270;2023-04-24T05:20:26;122.63;;;87.20;;
9322;SDS011;4700;48.822;9.270;2023-04-24T05:23:12;134.77;;;90.60;;
9322;SDS011;4700;48.822;9.270;2023-04-24T05:28:33;148.20;;;103.67;;
9322;SDS011;4700;48.822;9.270;2023-04-24T05:31:22;120.03;;;84.10;;
9322;SDS011;4700;48.822;9.270;2023-04-24T05:34:19;166.80;;;95.00;;
9322;SDS011;4700;48.822;9.270;2023-04-24T05:37:06;180.93;;;99.83;;
9322;SDS011;4700;48.822;9.270;2023-04-24T05:39:56;184.43;;;100.87;;
9322;SDS011;4700;48.822;9.270;2023-04-24T05:47:50;199.43;;;103.43;;
9322;SDS011;4700;48.822;9.270;2023-04-24T05:50:36;211.07;;;110.03;;
9322;SDS011;4700;48.822;9.270;2023-04-24T05:53:22;218.70;;;112.93;;
9322;SDS011;4700;48.822;9.270;2023-04-24T05:56:09;220.17;;;110.10;;
9322;SDS011;4700;48.822;9.270;2023-04-24T05:58:55;243.93;;;127.20;;
9322;SDS011;4700;48.822;9.270;2023-04-24T06:01:41;215.57;;;110.73;;
9322;SDS011;4700;48.822;9.270;2023-04-24T06:04:28;219.10;;;117.83;;
9322;SDS011;4700;48.822;9.270;2023-04-24T06:07:14;223.57;;;120.23;;
9322;SDS011;4700;48.822;9.270;2023-04-24T06:10:01;227.30;;;121.03;;
9322;SDS011;4700;48.822;9.270;2023-04-24T06:12:47;231.90;;;117.43;;
9322;SDS011;4700;48.822;9.270;2023-04-24T06:15:33;231.83;;;118.10;;
9322;SDS011;4700;48.822;9.270;2023-04-24T06:18:19;226.63;;;119.03;;
9322;SDS011;4700;48.822;9.270;2023-04-24T06:21:06;231.30;;;119.37;;
9322;SDS011;4700;48.822;9.270;2023-04-24T06:23:53;225.63;;;118.73;;
9322;SDS011;4700;48.822;9.270;2023-04-24T06:26:43;203.27;;;113.90;;
9322;SDS011;4700;48.822;9.270;2023-04-24T06:29:29;188.20;;;110.87;;
9322;SDS011;4700;48.822;9.270;2023-04-24T06:32:15;159.80;;;100.63;;
9322;SDS011;4700;48.822;9.270;2023-04-24T06:35:02;151.77;;;100.63;;
9322;SDS011;4700;48.822;9.270;2023-04-24T06:37:49;115.40;;;96.63;;
9322;SDS011;4700;48.822;9.270;2023-04-24T06:40:41;126.77;;;111.53;;
9322;SDS011;4700;48.822;9.270;2023-04-24T06:43:33;138.73;;;124.00;;
9322;SDS011;4700;48.822;9.270;2023-04-24T06:46:18;103.97;;;95.23;;
9322;SDS011;4700;48.822;9.270;2023-04-24T06:49:09;67.73;;;62.60;;
9322;SDS011;4700;48.822;9.270;2023-04-24T06:51:55;50.57;;;47.00;;
9322;SDS011;4700;48.822;9.270;2023-04-24T06:54:42;48.60;;;44.77;;
9322;SDS011;4700;48.822;9.270;2023-04-24T06:57:31;60.20;;;55.47;;
9322;SDS011;4700;48.822;9.270;2023-04-24T07:00:17;55.97;;;49.73;;
9322;SDS011;4700;48.822;9.270;2023-04-24T07:03:04;30.23;;;27.07;;
9322;SDS011;4700;48.822;9.270;2023-04-24T07:05:50;44.37;;;39.73;;
9322;SDS011;4700;48.822;9.270;2023-04-24T07:08:36;41.93;;;25.97;;
9322;SDS011;4700;48.822;9.270;2023-04-24T07:11:23;40.67;;;35.00;;
9322;SDS011;4700;48.822;9.270;2023-04-24T07:14:13;36.63;;;31.80;;
9322;SDS011;4700;48.822;9.270;2023-04-24T07:16:59;41.10;;;34.37;;
9322;SDS011;4700;48.822;9.270;2023-04-24T07:19:48;45.80;;;40.17;;
9322;SDS011;4700;48.822;9.270;2023-04-24T07:22:33;29.97;;;25.50;;
9322;SDS011;4700;48.822;9.270;2023-04-24T07:25:19;24.97;;;21.43;;
9322;SDS011;4700;48.822;9.270;2023-04-24T07:28:07;26.90;;;24.23;;
9322;SDS011;4700;48.822;9.270;2023-04-24T07:30:54;32.77;;;29.27;;
9322;SDS011;4700;48.822;9.270;2023-04-24T07:33:43;29.87;;;25.37;;
9322;SDS011;4700;48.822;9.270;2023-04-24T07:36:28;31.70;;;28.37;;
9322;SDS011;4700;48.822;9.270;2023-04-24T07:39:17;28.23;;;25.60;;
9322;SDS011;4700;48.822;9.270;2023-04-24T07:42:05;24.83;;;21.93;;
9322;SDS011;4700;48.822;9.270;2023-04-24T07:44:51;18.40;;;16.50;;
9322;SDS011;4700;48.822;9.270;2023-04-24T07:47:37;40.00;;;36.80;;
9322;SDS011;4700;48.822;9.270;2023-04-24T07:50:27;38.20;;;34.47;;
9322;SDS011;4700;48.822;9.270;2023-04-24T07:53:13;30.10;;;27.00;;
9322;SDS011;4700;48.822;9.270;2023-04-24T07:55:58;40.80;;;30.53;;
9322;SDS011;4700;48.822;9.270;2023-04-24T07:58:44;30.53;;;25.83;;
9322;SDS011;4700;48.822;9.270;2023-04-24T08:01:32;40.90;;;24.97;;
9322;SDS011;4700;48.822;9.270;2023-04-24T08:04:25;33.10;;;14.83;;
9322;SDS011;4700;48.822;9.270;2023-04-24T08:07:14;39.10;;;26.13;;
9322;SDS011;4700;48.822;9.270;2023-04-24T08:10:01;29.37;;;21.80;;
9322;SDS011;4700;48.822;9.270;2023-04-24T08:12:50;29.00;;;18.23;;
9322;SDS011;4700;48.822;9.270;2023-04-24T08:15:39;16.53;;;13.00;;
9322;SDS011;4700;48.822;9.270;2023-04-24T08:18:27;22.43;;;13.40;;
9322;SDS011;4700;48.822;9.270;2023-04-24T08:21:14;29.47;;;27.00;;
9322;SDS011;4700;48.822;9.270;2023-04-24T08:24:03;37.63;;;33.73;;
9322;SDS011;4700;48.822;9.270;2023-04-24T08:26:52;37.50;;;28.60;;
9322;SDS011;4700;48.822;9.270;2023-04-24T08:29:41;36.00;;;32.37;;
9322;SDS011;4700;48.822;9.270;2023-04-24T08:32:30;59.67;;;36.17;;
9322;SDS011;4700;48.822;9.270;2023-04-24T08:35:19;42.93;;;38.87;;
9322;SDS011;4700;48.822;9.270;2023-04-24T08:38:07;44.27;;;37.77;;
9322;SDS011;4700;48.822;9.270;2023-04-24T08:40:53;35.80;;;32.00;;
9322;SDS011;4700;48.822;9.270;2023-04-24T08:43:42;49.90;;;42.57;;
9322;SDS011;4700;48.822;9.270;2023-04-24T08:46:33;32.77;;;25.10;;
9322;SDS011;4700;48.822;9.270;2023-04-24T08:49:21;57.50;;;35.47;;
9322;SDS011;4700;48.822;9.270;2023-04-24T08:52:11;37.60;;;28.47;;
9322;SDS011;4700;48.822;9.270;2023-04-24T08:54:58;35.23;;;32.23;;
9322;SDS011;4700;48.822;9.270;2023-04-24T08:57:48;18.83;;;16.60;;
9322;SDS011;4700;48.822;9.270;2023-04-24T09:00:37;35.60;;;32.53;;
9322;SDS011;4700;48.822;9.270;2023-04-24T09:03:28;30.20;;;27.33;;
9322;SDS011;4700;48.822;9.270;2023-04-24T09:06:14;24.50;;;22.20;;
9322;SDS011;4700;48.822;9.270;2023-04-24T09:09:02;27.03;;;24.70;;
9322;SDS011;4700;48.822;9.270;2023-04-24T09:11:51;40.17;;;36.27;;
9322;SDS011;4700;48.822;9.270;2023-04-24T09:14:39;27.13;;;24.30;;
9322;SDS011;4700;48.822;9.270;2023-04-24T09:17:28;50.23;;;35.67;;
9322;SDS011;4700;48.822;9.270;2023-04-24T09:20:18;29.60;;;23.57;;
9322;SDS011;4700;48.822;9.270;2023-04-24T09:23:04;34.10;;;29.73;;
9322;SDS011;4700;48.822;9.270;2023-04-24T09:25:51;30.03;;;27.43;;
9322;SDS011;4700;48.822;9.270;2023-04-24T09:28:40;30.33;;;28.13;;
9322;SDS011;4700;48.822;9.270;2023-04-24T09:31:29;26.70;;;24.93;;
9322;SDS011;4700;48.822;9.270;2023-04-24T09:34:21;26.73;;;25.07;;
9322;SDS011;4700;48.822;9.270;2023-04-24T09:37:10;28.63;;;24.57;;
9322;SDS011;4700;48.822;9.270;2023-04-24T09:40:11;30.43;;;28.70;;
9322;SDS011;4700;48.822;9.270;2023-04-24T09:45:28;28.10;;;24.90;;
9322;SDS011;4700;48.822;9.270;2023-04-24T09:48:29;28.13;;;26.40;;
9322;SDS011;4700;48.822;9.270;2023-04-24T09:51:19;23.50;;;22.00;;
9322;SDS011;4700;48.822;9.270;2023-04-24T09:54:19;35.60;;;32.60;;
9322;SDS011;4700;48.822;9.270;2023-04-24T09:57:07;29.70;;;27.10;;
9322;SDS011;4700;48.822;9.270;2023-04-24T09:59:53;42.67;;;37.40;;
9322;SDS011;4700;48.822;9.270;2023-04-24T10:02:40;29.93;;;27.53;;
9322;SDS011;4700;48.822;9.270;2023-04-24T10:05:28;33.43;;;30.17;;
9322;SDS011;4700;48.822;9.270;2023-04-24T10:08:16;28.27;;;26.10;;
9322;SDS011;4700;48.822;9.270;2023-04-24T10:11:02;27.43;;;24.97;;
9322;SDS011;4700;48.822;9.270;2023-04-24T10:13:48;34.60;;;31.57;;
9322;SDS011;4700;48.822;9.270;2023-04-24T10:16:36;33.63;;;30.33;;
9322;SDS011;4700;48.822;9.270;2023-04-24T10:19:25;37.20;;;33.93;;
9322;SDS011;4700;48.822;9.270;2023-04-24T10:22:12;35.37;;;31.80;;
9322;SDS011;4700;48.822;9.270;2023-04-24T10:25:03;32.20;;;28.93;;
9322;SDS011;4700;48.822;9.270;2023-04-24T10:27:51;23.27;;;21.07;;
9322;SDS011;4700;48.822;9.270;2023-04-24T10:30:41;31.10;;;28.07;;
9322;SDS011;4700;48.822;9.270;2023-04-24T10:33:29;29.03;;;26.30;;
9322;SDS011;4700;48.822;9.270;2023-04-24T10:36:17;32.27;;;29.27;;
9322;SDS011;4700;48.822;9.270;2023-04-24T10:39:05;31.00;;;27.43;;
9322;SDS011;4700;48.822;9.270;2023-04-24T10:41:54;35.10;;;32.03;;
9322;SDS011;4700;48.822;9.270;2023-04-24T10:44:41;30.20;;;27.00;;
9322;SDS011;4700;48.822;9.270;2023-04-24T10:47:27;25.70;;;23.43;;
9322;SDS011;4700;48.822;9.270;2023-04-24T10:50:13;23.70;;;19.87;;
9322;SDS011;4700;48.822;9.270;2023-04-24T10:53:06;30.87;;;28.43;;
9322;SDS011;4700;48.822;9.270;2023-04-24T10:55:58;32.17;;;28.90;;
9322;SDS011;4700;48.822;9.270;2023-04-24T10:58:49;27.93;;;25.30;;
9322;SDS011;4700;48.822;9.270;2023-04-24T11:01:37;37.27;;;34.03;;
9322;SDS011;4700;48.822;9.270;2023-04-24T11:04:31;33.37;;;30.60;;
9322;SDS011;4700;48.822;9.270;2023-04-24T11:07:19;35.37;;;32.20;;
9322;SDS011;4700;48.822;9.270;2023-04-24T11:10:08;29.80;;;26.87;;
9322;SDS011;4700;48.822;9.270;2023-04-24T11:13:09;29.93;;;27.07;;
9322;SDS011;4700;48.822;9.270;2023-04-24T11:16:14;44.30;;;40.23;;
9322;SDS011;4700;48.822;9.270;2023-04-24T11:19:06;28.20;;;25.37;;
9322;SDS011;4700;48.822;9.270;2023-04-24T11:21:57;25.13;;;23.37;;
9322;SDS011;4700;48.822;9.270;2023-04-24T11:24:48;28.03;;;23.97;;
9322;SDS011;4700;48.822;9.270;2023-04-24T11:27:40;33.80;;;30.30;;
9322;SDS011;4700;48.822;9.270;2023-04-24T11:30:28;70.47;;;51.03;;
9322;SDS011;4700;48.822;9.270;2023-04-24T11:33:15;54.17;;;33.03;;
9322;SDS011;4700;48.822;9.270;2023-04-24T11:36:06;44.67;;;33.27;;
9322;SDS011;4700;48.822;9.270;2023-04-24T11:38:52;26.70;;;23.30;;
9322;SDS011;4700;48.822;9.270;2023-04-24T11:41:42;42.63;;;38.33;;
9322;SDS011;4700;48.822;9.270;2023-04-24T11:44:29;25.50;;;22.73;;
9322;SDS011;4700;48.822;9.270;2023-04-24T11:47:16;35.33;;;32.73;;
9322;SDS011;4700;48.822;9.270;2023-04-24T11:50:02;30.73;;;26.37;;
9322;SDS011;4700;48.822;9.270;2023-04-24T11:52:51;31.97;;;28.60;;
9322;SDS011;4700;48.822;9.270;2023-04-24T11:55:39;37.43;;;33.57;;
9322;SDS011;4700;48.822;9.270;2023-04-24T11:58:25;25.47;;;23.27;;
9322;SDS011;4700;48.822;9.270;2023-04-24T12:01:13;42.50;;;38.37;;
9322;SDS011;4700;48.822;9.270;2023-04-24T12:04:01;25.97;;;23.70;;
9322;SDS011;4700;48.822;9.270;2023-04-24T12:06:59;40.40;;;36.27;;
9322;SDS011;4700;48.822;9.270;2023-04-24T12:09:46;25.53;;;23.40;;
9322;SDS011;4700;48.822;9.270;2023-04-24T12:12:32;30.13;;;22.40;;
9322;SDS011;4700;48.822;9.270;2023-04-24T12:15:18;41.67;;;32.97;;
9322;SDS011;4700;48.822;9.270;2023-04-24T12:18:06;37.80;;;28.00;;
9322;SDS011;4700;48.822;9.270;2023-04-24T12:24:01;26.47;;;21.47;;
9322;SDS011;4700;48.822;9.270;2023-04-24T12:26:50;35.33;;;21.90;;
9322;SDS011;4700;48.822;9.270;2023-04-24T12:29:37;25.03;;;17.90;;
9322;SDS011;4700;48.822;9.270;2023-04-24T12:32:40;20.70;;;17.83;;
9322;SDS011;4700;48.822;9.270;2023-04-24T12:35:30;22.53;;;17.17;;
9322;SDS011;4700;48.822;9.270;2023-04-24T12:38:21;19.83;;;18.13;;
9322;SDS011;4700;48.822;9.270;2023-04-24T12:41:08;20.03;;;18.20;;
9322;SDS011;4700;48.822;9.270;2023-04-24T12:43:56;34.20;;;22.00;;
9322;SDS011;4700;48.822;9.270;2023-04-24T12:46:42;27.13;;;23.07;;
9322;SDS011;4700;48.822;9.270;2023-04-24T12:49:29;19.30;;;16.90;;
9322;SDS011;4700;48.822;9.270;2023-04-24T12:52:19;25.27;;;22.77;;
9322;SDS011;4700;48.822;9.270;2023-04-24T12:55:06;37.57;;;33.90;;
9322;SDS011;4700;48.822;9.270;2023-04-24T12:57:55;22.97;;;20.77;;
9322;SDS011;4700;48.822;9.270;2023-04-24T13:00:41;27.03;;;22.97;;
9322;SDS011;4700;48.822;9.270;2023-04-24T13:03:29;31.17;;;28.73;;
9322;SDS011;4700;48.822;9.270;2023-04-24T13:06:15;29.03;;;26.23;;
9322;SDS011;4700;48.822;9.270;2023-04-24T13:09:02;24.17;;;21.97;;
9322;SDS011;4700;48.822;9.270;2023-04-24T13:11:51;30.47;;;28.07;;
9322;SDS011;4700;48.822;9.270;2023-04-24T13:14:38;28.57;;;26.27;;
9322;SDS011;4700;48.822;9.270;2023-04-24T13:17:23;25.57;;;23.40;;
9322;SDS011;4700;48.822;9.270;2023-04-24T13:20:11;26.20;;;24.40;;
9322;SDS011;4700;48.822;9.270;2023-04-24T13:22:57;32.63;;;29.90;;
9322;SDS011;4700;48.822;9.270;2023-04-24T13:25:45;40.87;;;37.80;;
9322;SDS011;4700;48.822;9.270;2023-04-24T13:28:31;26.20;;;24.10;;
9322;SDS011;4700;48.822;9.270;2023-04-24T13:31:17;35.40;;;32.57;;
9322;SDS011;4700;48.822;9.270;2023-04-24T13:34:03;32.27;;;30.10;;
9322;SDS011;4700;48.822;9.270;2023-04-24T13:36:50;35.37;;;32.83;;
9322;SDS011;4700;48.822;9.270;2023-04-24T13:39:36;36.93;;;33.80;;
9322;SDS011;4700;48.822;9.270;2023-04-24T13:42:23;34.20;;;31.43;;
9322;SDS011;4700;48.822;9.270;2023-04-24T13:45:10;36.63;;;30.23;;
9322;SDS011;4700;48.822;9.270;2023-04-24T13:47:56;32.37;;;29.53;;
9322;SDS011;4700;48.822;9.270;2023-04-24T13:50:45;27.93;;;24.93;;
9322;SDS011;4700;48.822;9.270;2023-04-24T13:53:32;39.53;;;36.03;;
9322;SDS011;4700;48.822;9.270;2023-04-24T13:56:22;29.60;;;26.90;;
9322;SDS011;4700;48.822;9.270;2023-04-24T13:59:11;25.50;;;23.87;;
9322;SDS011;4700;48.822;9.270;2023-04-24T14:01:57;27.47;;;24.93;;
9322;SDS011;4700;48.822;9.270;2023-04-24T14:04:43;24.57;;;22.57;;
9322;SDS011;4700;48.822;9.270;2023-04-24T14:07:29;25.27;;;23.63;;
9322;SDS011;4700;48.822;9.270;2023-04-24T14:10:17;26.63;;;24.43;;
9322;SDS011;4700;48.822;9.270;2023-04-24T14:13:03;33.00;;;30.10;;
9322;SDS011;4700;48.822;9.270;2023-04-24T14:15:53;43.47;;;39.53;;
9322;SDS011;4700;48.822;9.270;2023-04-24T14:18:39;26.93;;;24.57;;
9322;SDS011;4700;48.822;9.270;2023-04-24T14:21:25;33.57;;;30.90;;
9322;SDS011;4700;48.822;9.270;2023-04-24T14:24:14;30.13;;;28.30;;
9322;SDS011;4700;48.822;9.270;2023-04-24T14:27:01;34.23;;;28.70;;
9322;SDS011;4700;48.822;9.270;2023-04-24T14:29:47;29.63;;;27.20;;
9322;SDS011;4700;48.822;9.270;2023-04-24T14:32:35;25.07;;;23.13;;
9322;SDS011;4700;48.822;9.270;2023-04-24T14:35:21;44.90;;;40.67;;
9322;SDS011;4700;48.822;9.270;2023-04-24T14:38:10;34.47;;;31.07;;
9322;SDS011;4700;48.822;9.270;2023-04-24T14:40:56;34.50;;;31.47;;
9322;SDS011;4700;48.822;9.270;2023-04-24T14:43:42;27.43;;;25.40;;
9322;SDS011;4700;48.822;9.270;2023-04-24T14:46:29;24.27;;;22.67;;
9322;SDS011;4700;48.822;9.270;2023-04-24T14:49:17;27.97;;;25.73;;
9322;SDS011;4700;48.822;9.270;2023-04-24T14:52:03;45.83;;;37.73;;
9322;SDS011;4700;48.822;9.270;2023-04-24T14:54:49;34.97;;;31.53;;
9322;SDS011;4700;48.822;9.270;2023-04-24T14:57:36;25.00;;;22.80;;
9322;SDS011;4700;48.822;9.270;2023-04-24T15:00:28;43.27;;;39.33;;
9322;SDS011;4700;48.822;9.270;2023-04-24T15:03:14;25.30;;;20.63;;
9322;SDS011;4700;48.822;9.270;2023-04-24T15:06:02;39.13;;;36.43;;
9322;SDS011;4700;48.822;9.270;2023-04-24T15:08:51;39.37;;;35.53;;
9322;SDS011;4700;48.822;9.270;2023-04-24T15:11:37;19.40;;;17.80;;
9322;SDS011;4700;48.822;9.270;2023-04-24T15:14:23;17.43;;;15.70;;
9322;SDS011;4700;48.822;9.270;2023-04-24T15:17:09;27.80;;;25.53;;
9322;SDS011;4700;48.822;9.270;2023-04-24T15:19:55;25.50;;;23.77;;
9322;SDS011;4700;48.822;9.270;2023-04-24T15:22:42;36.57;;;32.90;;
9322;SDS011;4700;48.822;9.270;2023-04-24T15:25:29;25.73;;;23.77;;
9322;SDS011;4700;48.822;9.270;2023-04-24T15:28:16;25.97;;;23.87;;
9322;SDS011;4700;48.822;9.270;2023-04-24T15:31:02;39.80;;;36.50;;
9322;SDS011;4700;48.822;9.270;2023-04-24T15:33:48;27.30;;;25.33;;
9322;SDS011;4700;48.822;9.270;2023-04-24T15:36:34;33.87;;;30.73;;
9322;SDS011;4700;48.822;9.270;2023-04-24T15:39:23;41.40;;;38.50;;
9322;SDS011;4700;48.822;9.270;2023-04-24T15:42:08;36.77;;;33.77;;
9322;SDS011;4700;48.822;9.270;2023-04-24T15:47:24;36.37;;;33.43;;
9322;SDS011;4700;48.822;9.270;2023-04-24T15:50:10;26.37;;;24.77;;
9322;SDS011;4700;48.822;9.270;2023-04-24T15:52:57;36.20;;;33.60;;
9322;SDS011;4700;48.822;9.270;2023-04-24T15:55:45;39.27;;;35.87;;
9322;SDS011;4700;48.822;9.270;2023-04-24T15:58:30;42.33;;;39.40;;
9322;SDS011;4700;48.822;9.270;2023-04-24T16:01:16;52.60;;;48.67;;
9322;SDS011;4700;48.822;9.270;2023-04-24T16:04:02;46.50;;;43.60;;
9322;SDS011;4700;48.822;9.270;2023-04-24T16:06:48;69.33;;;64.07;;
9322;SDS011;4700;48.822;9.270;2023-04-24T16:09:34;59.10;;;55.70;;
9322;SDS011;4700;48.822;9.270;2023-04-24T16:12:21;64.17;;;60.27;;
9322;SDS011;4700;48.822;9.270;2023-04-24T16:15:10;84.77;;;79.73;;
9322;SDS011;4700;48.822;9.270;2023-04-24T16:17:56;94.93;;;87.60;;
9322;SDS011;4700;48.822;9.270;2023-04-24T16:20:43;104.73;;;96.43;;
9322;SDS011;4700;48.822;9.270;2023-04-24T16:23:29;94.03;;;86.17;;
9322;SDS011;4700;48.822;9.270;2023-04-24T16:26:15;89.47;;;83.07;;
9322;SDS011;4700;48.822;9.270;2023-04-24T16:29:02;85.07;;;79.47;;
9322;SDS011;4700;48.822;9.270;2023-04-24T16:31:48;96.10;;;88.17;;
9322;SDS011;4700;48.822;9.270;2023-04-24T16:34:33;105.70;;;96.67;;
9322;SDS011;4700;48.822;9.270;2023-04-24T16:37:20;121.27;;;110.70;;
9322;SDS011;4700;48.822;9.270;2023-04-24T16:40:07;113.17;;;102.67;;
9322;SDS011;4700;48.822;9.270;2023-04-24T16:42:55;105.47;;;95.33;;
9322;SDS011;4700;48.822;9.270;2023-04-24T16:45:42;100.00;;;90.63;;
9322;SDS011;4700;48.822;9.270;2023-04-24T16:48:28;90.80;;;81.57;;
9322;SDS011;4700;48.822;9.270;2023-04-24T16:51:16;89.10;;;80.40;;
9322;SDS011;4700;48.822;9.270;2023-04-24T16:54:02;96.20;;;86.27;;
9322;SDS011;4700;48.822;9.270;2023-04-24T16:56:49;100.57;;;88.37;;
9322;SDS011;4700;48.822;9.270;2023-04-24T16:59:35;108.63;;;92.00;;
9322;SDS011;4700;48.822;9.270;2023-04-24T17:02:22;116.53;;;94.80;;
9322;SDS011;4700;48.822;9.270;2023-04-24T17:05:09;106.87;;;89.43;;
9322;SDS011;4700;48.822;9.270;2023-04-24T17:07:55;113.40;;;91.30;;
9322;SDS011;4700;48.822;9.270;2023-04-24T17:10:41;109.07;;;90.23;;
9322;SDS011;4700;48.822;9.270;2023-04-24T17:13:27;123.63;;;99.43;;
9322;SDS011;4700;48.822;9.270;2023-04-24T17:16:13;127.30;;;97.33;;
9322;SDS011;4700;48.822;9.270;2023-04-24T17:19:01;129.87;;;95.10;;
9322;SDS011;4700;48.822;9.270;2023-04-24T17:21:47;118.17;;;92.00;;
9322;SDS011;4700;48.822;9.270;2023-04-24T17:24:33;121.83;;;95.53;;
9322;SDS011;4700;48.822;9.270;2023-04-24T17:27:19;128.97;;;96.90;;
9322;SDS011;4700;48.822;9.270;2023-04-24T17:30:05;120.00;;;94.73;;
9322;SDS011;4700;48.822;9.270;2023-04-24T17:32:52;102.20;;;89.23;;
9322;SDS011;4700;48.822;9.270;2023-04-24T17:35:39;91.63;;;82.43;;
9322;SDS011;4700;48.822;9.270;2023-04-24T17:38:26;89.17;;;80.10;;
9322;SDS011;4700;48.822;9.270;2023-04-24T17:41:12;77.50;;;70.20;;
9322;SDS011;4700;48.822;9.270;2023-04-24T17:44:08;64.97;;;59.10;;
9322;SDS011;4700;48.822;9.270;2023-04-24T17:49:29;74.57;;;68.17;;
9322;SDS011;4700;48.822;9.270;2023-04-24T17:54:52;42.73;;;39.67;;
9322;SDS011;4700;48.822;9.270;2023-04-24T17:57:38;76.13;;;68.53;;
9322;SDS011;4700;48.822;9.270;2023-04-24T18:00:24;74.10;;;67.33;;
9322;SDS011;4700;48.822;9.270;2023-04-24T18:03:10;62.03;;;56.03;;